Time;durP1;ratioP1;P1;durP2;ratioP2;P2;SDS_P1;SDS_P2;PMS_P1;PMS_P2;Temp;Humidity;BMP_temperature;BMP_pressure;BME280_temperature;BME280_humidity;BME280_pressure;Samples;Min_cycle;Max_cycle;Signal;HPM_P1;HPM_P2
2023/01/08 00:03:10;;;;;;;21.40;7.30;;;;;;;;;;6243880;22;20189;-88
2023/01/08 00:06:24;;;;;;;24.13;7.10;;;;;;;;;;6244945;22;20146;-90
2023/01/08 00:09:36;;;;;;;28.13;7.43;;;;;;;;;;6243092;23;20174;-89
2023/01/08 00:12:48;;;;;;;31.47;7.60;;;;;;;;;;6243100;22;20191;-88
2023/01/08 00:16:03;;;;;;;25.03;7.40;;;;;;;;;;6244642;22;20193;-88
2023/01/08 00:19:15;;;;;;;15.70;8.03;;;;;;;;;;6244341;22;20174;-89
2023/01/08 00:22:27;;;;;;;31.57;7.87;;;;;;;;;;6244182;22;20166;-89
2023/01/08 00:25:40;;;;;;;24.77;6.93;;;;;;;;;;6244440;22;20169;-89
2023/01/08 00:28:52;;;;;;;37.53;8.27;;;;;;;;;;6242932;23;20170;-88
2023/01/08 00:32:04;;;;;;;26.53;7.20;;;;;;;;;;6243866;22;20182;-90
2023/01/08 00:35:16;;;;;;;42.77;8.03;;;;;;;;;;6244268;23;20210;-88
2023/01/08 00:38:28;;;;;;;66.37;9.30;;;;;;;;;;6245264;22;20166;-90
2023/01/08 00:41:44;;;;;;;66.20;9.53;;;;;;;;;;6242085;23;20178;-90
2023/01/08 00:44:56;;;;;;;70.17;9.77;;;;;;;;;;6244540;22;20194;-89
2023/01/08 00:48:08;;;;;;;50.83;9.40;;;;;;;;;;6242580;22;20166;-89
2023/01/08 00:51:20;;;;;;;39.03;8.60;;;;;;;;;;6241986;23;20274;-88
2023/01/08 00:54:31;;;;;;;55.10;9.03;;;;;;;;;;6239750;22;20298;-91
2023/01/08 00:57:44;;;;;;;30.60;8.83;;;;;;;;;;6241420;23;20166;-87
2023/01/08 01:00:56;;;;;;;35.07;8.87;;;;;;;;;;6241355;22;20191;-88
2023/01/08 01:04:08;;;;;;;68.87;8.90;;;;;;;;;;6259383;22;20197;-89
2023/01/08 01:07:20;;;;;;;34.70;8.73;;;;;;;;;;6242720;22;20167;-89
2023/01/08 01:10:32;;;;;;;80.90;9.53;;;;;;;;;;6242879;23;20202;-89
2023/01/08 01:13:45;;;;;;;72.27;9.00;;;;;;;;;;6243403;22;20194;-89
2023/01/08 01:16:57;;;;;;;81.77;9.27;;;;;;;;;;6245879;22;20162;-88
2023/01/08 01:20:08;;;;;;;58.57;8.47;;;;;;;;;;6244521;22;20254;-89
2023/01/08 01:23:20;;;;;;;28.97;7.70;;;;;;;;;;6242954;22;20175;-89
2023/01/08 01:26:33;;;;;;;138.13;10.27;;;;;;;;;;6243337;23;20202;-89
2023/01/08 01:29:46;;;;;;;58.30;8.83;;;;;;;;;;6241055;22;20170;-88
2023/01/08 01:33:01;;;;;;;52.10;9.50;;;;;;;;;;6244463;23;20194;-89
2023/01/08 01:36:13;;;;;;;58.63;9.77;;;;;;;;;;6243630;23;20261;-89
2023/01/08 01:39:25;;;;;;;63.43;10.03;;;;;;;;;;6242910;22;20213;-89
2023/01/08 01:42:40;;;;;;;38.20;8.40;;;;;;;;;;6258568;22;20295;-88
2023/01/08 01:45:53;;;;;;;29.53;8.97;;;;;;;;;;6242163;22;20169;-90
2023/01/08 01:49:07;;;;;;;46.37;8.73;;;;;;;;;;6240928;22;20614;-90
2023/01/08 01:52:21;;;;;;;21.90;7.53;;;;;;;;;;6240704;23;20170;-89
2023/01/08 01:55:33;;;;;;;37.13;8.10;;;;;;;;;;6241544;22;20171;-89
2023/01/08 01:58:45;;;;;;;27.63;7.67;;;;;;;;;;6242327;23;20175;-91
2023/01/08 02:01:58;;;;;;;111.17;8.87;;;;;;;;;;6243019;23;20234;-90
2023/01/08 02:05:10;;;;;;;96.37;9.80;;;;;;;;;;6241844;22;20142;-88
2023/01/08 02:08:25;;;;;;;37.73;7.50;;;;;;;;;;6241173;22;20166;-90
2023/01/08 02:11:42;;;;;;;83.57;8.83;;;;;;;;;;6241148;23;20426;-90
2023/01/08 02:15:04;;;;;;;87.53;9.77;;;;;;;;;;6241994;23;20237;-89
2023/01/08 02:18:19;;;;;;;35.70;8.17;;;;;;;;;;6240272;22;20178;-90
2023/01/08 02:21:34;;;;;;;58.27;8.60;;;;;;;;;;6241984;23;20171;-90
2023/01/08 02:24:52;;;;;;;44.27;9.20;;;;;;;;;;6240814;23;20174;-90
2023/01/08 02:28:09;;;;;;;50.13;8.93;;;;;;;;;;6241025;23;20171;-88
2023/01/08 02:31:22;;;;;;;45.70;9.27;;;;;;;;;;6241928;23;20170;-88
2023/01/08 02:34:34;;;;;;;43.03;8.83;;;;;;;;;;6258393;23;20197;-90
2023/01/08 02:37:46;;;;;;;44.67;8.90;;;;;;;;;;6241076;22;20170;-89
2023/01/08 02:41:03;;;;;;;61.50;9.57;;;;;;;;;;6241518;23;20238;-89
2023/01/08 02:44:20;;;;;;;149.13;10.33;;;;;;;;;;6241603;23;20211;-90
2023/01/08 02:47:33;;;;;;;91.93;11.20;;;;;;;;;;6241861;23;20206;-91
2023/01/08 02:50:47;;;;;;;90.53;9.63;;;;;;;;;;6241831;22;20219;-91
2023/01/08 02:54:00;;;;;;;55.40;9.10;;;;;;;;;;6241880;22;20194;-90
2023/01/08 02:57:13;;;;;;;69.63;10.27;;;;;;;;;;6241976;22;20146;-90
2023/01/08 03:00:27;;;;;;;44.50;9.40;;;;;;;;;;6242312;22;20599;-90
2023/01/08 03:03:40;;;;;;;41.37;10.30;;;;;;;;;;6242946;22;20249;-89
2023/01/08 03:06:52;;;;;;;49.83;9.80;;;;;;;;;;6243416;22;20290;-92
2023/01/08 03:10:04;;;;;;;36.53;9.03;;;;;;;;;;6242647;22;20170;-90
2023/01/08 03:13:17;;;;;;;48.27;10.27;;;;;;;;;;6241832;22;20191;-89
2023/01/08 03:16:34;;;;;;;53.67;8.93;;;;;;;;;;6239833;23;20170;-88
2023/01/08 03:19:49;;;;;;;55.00;9.47;;;;;;;;;;6241871;22;20159;-91
2023/01/08 03:23:02;;;;;;;50.07;10.13;;;;;;;;;;6242905;22;20571;-89
2023/01/08 03:26:15;;;;;;;80.63;11.00;;;;;;;;;;6242396;23;20254;-90
2023/01/08 03:29:28;;;;;;;66.23;9.60;;;;;;;;;;6242825;23;20286;-87
2023/01/08 03:32:42;;;;;;;36.37;9.23;;;;;;;;;;6243174;22;20239;-91
2023/01/08 03:35:55;;;;;;;38.07;8.83;;;;;;;;;;6242615;23;20167;-88
2023/01/08 03:39:09;;;;;;;36.23;9.00;;;;;;;;;;6240403;23;20174;-89
2023/01/08 03:42:21;;;;;;;35.50;9.43;;;;;;;;;;6241533;22;20171;-89
2023/01/08 03:45:33;;;;;;;44.00;10.07;;;;;;;;;;6241939;23;20243;-89
2023/01/08 03:48:47;;;;;;;37.33;9.90;;;;;;;;;;6239299;22;20155;-89
2023/01/08 03:51:58;;;;;;;35.73;10.13;;;;;;;;;;6240685;22;20171;-89
2023/01/08 03:55:10;;;;;;;23.97;9.63;;;;;;;;;;6240135;22;20170;-88
2023/01/08 03:58:21;;;;;;;62.83;9.67;;;;;;;;;;6240365;23;20171;-88
2023/01/08 04:01:32;;;;;;;38.17;9.27;;;;;;;;;;6239155;22;20166;-90
2023/01/08 04:04:45;;;;;;;27.20;8.77;;;;;;;;;;6240565;22;20244;-88
2023/01/08 04:07:57;;;;;;;51.90;9.27;;;;;;;;;;6241137;23;20166;-88
2023/01/08 04:11:08;;;;;;;47.03;9.33;;;;;;;;;;6239908;22;20257;-89
2023/01/08 04:14:19;;;;;;;53.43;10.30;;;;;;;;;;6241573;23;20194;-90
2023/01/08 04:17:31;;;;;;;69.87;9.60;;;;;;;;;;6241029;22;20277;-89
2023/01/08 04:20:47;;;;;;;54.10;10.37;;;;;;;;;;6238744;22;20163;-88
2023/01/08 04:23:59;;;;;;;73.37;9.63;;;;;;;;;;6240015;23;20504;-89
2023/01/08 04:27:10;;;;;;;50.17;8.80;;;;;;;;;;6240440;22;20166;-87
2023/01/08 04:30:21;;;;;;;62.93;10.00;;;;;;;;;;6239809;23;20648;-90
2023/01/08 04:33:33;;;;;;;99.60;10.63;;;;;;;;;;6240377;23;20194;-89
2023/01/08 04:36:50;;;;;;;46.43;11.07;;;;;;;;;;6241228;23;20174;-88
2023/01/08 04:40:02;;;;;;;31.60;9.97;;;;;;;;;;6240921;23;20606;-87
2023/01/08 04:43:14;;;;;;;32.10;9.03;;;;;;;;;;6240108;23;20166;-89
2023/01/08 04:46:25;;;;;;;22.80;9.30;;;;;;;;;;6239591;23;20155;-89
2023/01/08 04:49:37;;;;;;;41.73;9.57;;;;;;;;;;6241877;22;20243;-89
2023/01/08 04:52:50;;;;;;;38.10;8.80;;;;;;;;;;6240762;22;20174;-90
2023/01/08 04:56:03;;;;;;;46.23;9.50;;;;;;;;;;6241636;23;20622;-90
2023/01/08 04:59:15;;;;;;;38.00;9.07;;;;;;;;;;6242280;22;20171;-86
2023/01/08 05:02:26;;;;;;;32.17;9.30;;;;;;;;;;6240420;23;20180;-87
2023/01/08 05:05:38;;;;;;;25.30;9.03;;;;;;;;;;6240942;22;20178;-88
2023/01/08 05:08:51;;;;;;;27.93;8.87;;;;;;;;;;6240982;22;20200;-88
2023/01/08 05:12:03;;;;;;;28.07;9.87;;;;;;;;;;6242424;23;20166;-88
2023/01/08 05:15:13;;;;;;;35.83;9.57;;;;;;;;;;6244052;22;20202;-89
2023/01/08 05:18:24;;;;;;;37.50;9.20;;;;;;;;;;6241819;23;20197;-88
2023/01/08 05:21:36;;;;;;;32.40;10.20;;;;;;;;;;6242908;23;20237;-87
2023/01/08 05:24:49;;;;;;;23.80;9.23;;;;;;;;;;6243141;23;20186;-88
2023/01/08 05:28:01;;;;;;;33.60;9.27;;;;;;;;;;6242936;22;20150;-85
2023/01/08 05:31:14;;;;;;;26.60;9.73;;;;;;;;;;6243695;23;20174;-90
2023/01/08 05:34:26;;;;;;;37.70;9.67;;;;;;;;;;6242421;22;20190;-88
2023/01/08 05:37:38;;;;;;;78.53;11.30;;;;;;;;;;6243828;23;20210;-89
2023/01/08 05:40:54;;;;;;;44.43;11.43;;;;;;;;;;6243063;23;20170;-89
2023/01/08 05:44:06;;;;;;;77.87;12.67;;;;;;;;;;6243738;23;20167;-88
2023/01/08 05:47:17;;;;;;;54.67;12.50;;;;;;;;;;6243737;23;20656;-91
2023/01/08 05:50:29;;;;;;;85.37;13.20;;;;;;;;;;6243497;22;20178;-89
2023/01/08 05:53:41;;;;;;;54.17;12.87;;;;;;;;;;6241668;23;20198;-88
2023/01/08 05:56:54;;;;;;;64.63;13.20;;;;;;;;;;6241757;22;20171;-89
2023/01/08 06:00:07;;;;;;;41.23;13.73;;;;;;;;;;6242497;23;20252;-89
2023/01/08 06:03:23;;;;;;;34.70;11.90;;;;;;;;;;6260438;23;20175;-87
2023/01/08 06:06:35;;;;;;;33.10;10.83;;;;;;;;;;6241909;22;20167;-90
2023/01/08 06:09:47;;;;;;;33.97;10.57;;;;;;;;;;6244083;23;20166;-89
2023/01/08 06:13:00;;;;;;;36.27;11.67;;;;;;;;;;6243323;23;20221;-88
2023/01/08 06:16:12;;;;;;;38.40;12.37;;;;;;;;;;6242841;23;20524;-91
2023/01/08 06:19:24;;;;;;;45.33;12.03;;;;;;;;;;6242342;22;20186;-89
2023/01/08 06:22:36;;;;;;;64.40;13.43;;;;;;;;;;6242923;23;20150;-89
2023/01/08 06:25:53;;;;;;;49.97;13.53;;;;;;;;;;6241462;23;20290;-89
2023/01/08 06:29:07;;;;;;;57.97;13.67;;;;;;;;;;6241465;23;20221;-88
2023/01/08 06:32:18;;;;;;;54.33;13.73;;;;;;;;;;6241597;23;20242;-89
2023/01/08 06:35:30;;;;;;;51.03;12.77;;;;;;;;;;6241314;23;20238;-88
2023/01/08 06:38:41;;;;;;;52.80;13.00;;;;;;;;;;6240963;23;20170;-89
2023/01/08 06:41:52;;;;;;;39.93;13.27;;;;;;;;;;6241413;23;20174;-89
2023/01/08 06:45:06;;;;;;;34.40;12.73;;;;;;;;;;6240666;23;20167;-89
2023/01/08 06:48:18;;;;;;;32.50;11.87;;;;;;;;;;6241397;23;20268;-89
2023/01/08 06:51:30;;;;;;;25.83;11.37;;;;;;;;;;6241996;23;20313;-90
2023/01/08 06:54:42;;;;;;;25.83;11.20;;;;;;;;;;6241017;23;20195;-91
2023/01/08 06:57:54;;;;;;;24.63;11.17;;;;;;;;;;6240259;23;20253;-87
2023/01/08 07:01:07;;;;;;;21.67;10.63;;;;;;;;;;6241126;23;20175;-87
2023/01/08 07:04:19;;;;;;;22.33;10.63;;;;;;;;;;6241982;23;20218;-89
2023/01/08 07:07:30;;;;;;;26.13;11.73;;;;;;;;;;6241242;23;20217;-87
2023/01/08 07:10:41;;;;;;;30.90;11.97;;;;;;;;;;6241458;23;20251;-90
2023/01/08 07:13:55;;;;;;;24.03;11.77;;;;;;;;;;6242643;23;20190;-89
2023/01/08 07:17:08;;;;;;;31.80;11.63;;;;;;;;;;6241555;23;20560;-87
2023/01/08 07:20:20;;;;;;;28.87;12.23;;;;;;;;;;6243228;23;20170;-89
2023/01/08 07:23:32;;;;;;;34.33;13.27;;;;;;;;;;6243525;23;20218;-91
2023/01/08 07:26:43;;;;;;;31.90;12.30;;;;;;;;;;6242468;23;20197;-89
2023/01/08 07:29:55;;;;;;;27.27;11.20;;;;;;;;;;6243240;23;20170;-90
2023/01/08 07:33:08;;;;;;;25.40;10.90;;;;;;;;;;6244099;23;20226;-91
2023/01/08 07:36:21;;;;;;;27.30;11.67;;;;;;;;;;6242040;23;20209;-91
2023/01/08 07:39:33;;;;;;;26.70;11.53;;;;;;;;;;6242142;23;20162;-90
2023/01/08 07:42:45;;;;;;;26.20;12.40;;;;;;;;;;6241083;23;20198;-90
2023/01/08 07:45:57;;;;;;;24.90;12.00;;;;;;;;;;6242514;23;20194;-90
2023/01/08 07:49:10;;;;;;;27.60;12.40;;;;;;;;;;6240913;22;20170;-90
2023/01/08 07:52:22;;;;;;;28.50;11.60;;;;;;;;;;6242451;23;20215;-89
2023/01/08 07:55:34;;;;;;;33.23;11.37;;;;;;;;;;6242582;23;20233;-90
2023/01/08 07:58:46;;;;;;;28.63;11.90;;;;;;;;;;6243107;23;20201;-91
2023/01/08 08:01:58;;;;;;;29.20;12.33;;;;;;;;;;6243036;22;20166;-90
2023/01/08 08:05:11;;;;;;;25.50;11.87;;;;;;;;;;6241784;22;20171;-91
2023/01/08 08:08:23;;;;;;;26.80;11.83;;;;;;;;;;6243112;23;20179;-90
2023/01/08 08:11:34;;;;;;;33.53;12.00;;;;;;;;;;6242832;23;20162;-90
2023/01/08 08:14:45;;;;;;;28.93;12.80;;;;;;;;;;6241638;22;20529;-90
2023/01/08 08:17:57;;;;;;;25.57;11.90;;;;;;;;;;6240540;23;20576;-91
2023/01/08 08:21:10;;;;;;;31.17;12.93;;;;;;;;;;6240726;23;20235;-90
2023/01/08 08:24:21;;;;;;;30.27;12.80;;;;;;;;;;6239878;22;20186;-88
2023/01/08 08:27:33;;;;;;;32.33;12.53;;;;;;;;;;6241216;22;20174;-90
2023/01/08 08:30:45;;;;;;;28.80;13.07;;;;;;;;;;6242233;22;20166;-89
2023/01/08 08:33:57;;;;;;;39.40;13.43;;;;;;;;;;6242134;23;20162;-88
2023/01/08 08:37:10;;;;;;;42.70;13.33;;;;;;;;;;6242713;23;20174;-89
2023/01/08 08:40:22;;;;;;;30.93;12.37;;;;;;;;;;6243558;23;20142;-89
2023/01/08 08:43:33;;;;;;;36.20;12.53;;;;;;;;;;6241939;23;20165;-89
2023/01/08 08:46:45;;;;;;;40.10;12.23;;;;;;;;;;6243833;22;20217;-92
2023/01/08 08:49:57;;;;;;;27.73;12.17;;;;;;;;;;6241411;22;20664;-88
2023/01/08 08:53:11;;;;;;;31.83;11.83;;;;;;;;;;6243212;23;20186;-90
2023/01/08 08:56:23;;;;;;;37.07;11.87;;;;;;;;;;6242175;23;20178;-89
2023/01/08 08:59:35;;;;;;;38.37;11.63;;;;;;;;;;6241832;22;20170;-90
2023/01/08 09:02:46;;;;;;;45.13;14.03;;;;;;;;;;6241189;22;20166;-88
2023/01/08 09:05:57;;;;;;;41.10;13.37;;;;;;;;;;6238791;23;20193;-88
2023/01/08 09:09:10;;;;;;;29.70;12.70;;;;;;;;;;6241049;22;20157;-88
2023/01/08 09:12:22;;;;;;;33.97;14.17;;;;;;;;;;6241125;22;20170;-88
2023/01/08 09:15:33;;;;;;;33.60;13.50;;;;;;;;;;6241117;23;20189;-90
2023/01/08 09:18:45;;;;;;;30.33;13.27;;;;;;;;;;6240608;23;20241;-90
2023/01/08 09:21:57;;;;;;;34.97;14.47;;;;;;;;;;6240334;22;20154;-89
2023/01/08 09:25:10;;;;;;;32.20;14.10;;;;;;;;;;6242198;23;20174;-90
2023/01/08 09:28:21;;;;;;;31.73;13.53;;;;;;;;;;6239887;23;20221;-87
2023/01/08 09:31:32;;;;;;;33.00;14.07;;;;;;;;;;6240521;23;20166;-89
2023/01/08 09:34:43;;;;;;;34.20;13.13;;;;;;;;;;6240283;22;20210;-91
2023/01/08 09:37:55;;;;;;;34.97;14.47;;;;;;;;;;6240457;22;20174;-88
2023/01/08 09:41:09;;;;;;;31.83;13.97;;;;;;;;;;6241283;23;20170;-88
2023/01/08 09:44:23;;;;;;;37.30;14.37;;;;;;;;;;6239624;23;20219;-89
2023/01/08 09:47:37;;;;;;;29.70;13.07;;;;;;;;;;6239587;23;20170;-90
2023/01/08 09:50:49;;;;;;;32.53;12.87;;;;;;;;;;6242757;23;20162;-90
2023/01/08 09:54:03;;;;;;;31.87;14.27;;;;;;;;;;6240744;23;20221;-88
2023/01/08 09:57:17;;;;;;;31.23;13.33;;;;;;;;;;6242469;23;20170;-90
2023/01/08 10:00:30;;;;;;;33.73;13.53;;;;;;;;;;6242326;23;20194;-90
2023/01/08 10:03:43;;;;;;;33.50;13.40;;;;;;;;;;6244227;22;20213;-90
2023/01/08 10:07:36;;;;;;;29.63;13.17;;;;;;;;;;6242085;22;20601;-89
2023/01/08 10:10:47;;;;;;;30.03;12.83;;;;;;;;;;6241903;23;20167;-91
2023/01/08 10:14:04;;;;;;;30.53;12.40;;;;;;;;;;6242130;23;20261;-90
2023/01/08 10:17:19;;;;;;;34.30;13.43;;;;;;;;;;6241930;22;20170;-88
2023/01/08 10:20:31;;;;;;;33.70;14.03;;;;;;;;;;6247944;22;20170;-90
2023/01/08 10:23:50;;;;;;;32.20;13.70;;;;;;;;;;6248948;23;20167;-88
2023/01/08 10:27:09;;;;;;;32.60;13.10;;;;;;;;;;6242492;22;20170;-90
2023/01/08 10:30:23;;;;;;;31.77;13.63;;;;;;;;;;6242642;22;20214;-90
2023/01/08 10:33:39;;;;;;;34.03;14.20;;;;;;;;;;6243101;23;20171;-89
2023/01/08 10:36:51;;;;;;;32.07;13.17;;;;;;;;;;6242081;23;20503;-90
2023/01/08 10:40:07;;;;;;;32.00;14.43;;;;;;;;;;6243313;23;20192;-92
2023/01/08 10:43:20;;;;;;;32.23;13.60;;;;;;;;;;6243034;23;20170;-89
2023/01/08 10:46:35;;;;;;;31.33;13.57;;;;;;;;;;6241442;23;20294;-88
2023/01/08 10:49:47;;;;;;;37.40;15.67;;;;;;;;;;6239959;22;20151;-89
2023/01/08 10:53:00;;;;;;;37.27;15.17;;;;;;;;;;6240543;22;20145;-87
2023/01/08 10:56:19;;;;;;;38.10;15.27;;;;;;;;;;6240777;22;20194;-90
2023/01/08 10:59:31;;;;;;;43.33;17.23;;;;;;;;;;6242729;22;20210;-89
2023/01/08 11:02:44;;;;;;;39.50;15.50;;;;;;;;;;6241210;23;20167;-90
2023/01/08 11:05:56;;;;;;;35.53;14.93;;;;;;;;;;6240879;22;20162;-89
2023/01/08 11:09:18;;;;;;;40.70;17.10;;;;;;;;;;6242891;22;20154;-89
2023/01/08 11:12:34;;;;;;;54.33;19.47;;;;;;;;;;6244243;22;20170;-90
2023/01/08 11:15:46;;;;;;;43.57;17.30;;;;;;;;;;6243392;22;20230;-90
2023/01/08 11:18:59;;;;;;;49.30;17.73;;;;;;;;;;6244218;22;20217;-89
2023/01/08 11:22:19;;;;;;;45.20;19.03;;;;;;;;;;6242265;22;20158;-89
2023/01/08 11:25:31;;;;;;;46.70;17.93;;;;;;;;;;6242258;22;20167;-90
2023/01/08 11:28:46;;;;;;;39.97;17.30;;;;;;;;;;6242787;23;20253;-90
2023/01/08 11:32:04;;;;;;;47.97;18.57;;;;;;;;;;6242974;22;20150;-90
2023/01/08 11:38:49;;;;;;;43.23;16.57;;;;;;;;;;6253755;22;20256;-88
2023/01/08 11:42:10;;;;;;;38.60;15.07;;;;;;;;;;6257867;22;20245;-88
2023/01/08 11:45:26;;;;;;;37.57;15.47;;;;;;;;;;6242426;22;20159;-90
2023/01/08 11:48:46;;;;;;;42.23;16.40;;;;;;;;;;6258216;22;20175;-87
2023/01/08 11:52:19;;;;;;;40.30;16.03;;;;;;;;;;6258122;22;20187;-90
2023/01/08 11:55:38;;;;;;;41.07;15.80;;;;;;;;;;6259283;23;20190;-89
2023/01/08 11:59:00;;;;;;;41.23;15.13;;;;;;;;;;6261123;22;20170;-88
2023/01/08 12:02:19;;;;;;;38.47;14.93;;;;;;;;;;6241736;23;20162;-90
2023/01/08 12:05:35;;;;;;;41.67;16.27;;;;;;;;;;6258448;22;20174;-89
2023/01/08 12:08:50;;;;;;;31.87;13.90;;;;;;;;;;6242175;23;20264;-89
2023/01/08 12:12:07;;;;;;;37.10;15.90;;;;;;;;;;6242387;22;20186;-89
2023/01/08 12:15:22;;;;;;;43.73;17.07;;;;;;;;;;6257437;22;20190;-89
2023/01/08 12:18:36;;;;;;;43.60;16.20;;;;;;;;;;6240475;22;20187;-90
2023/01/08 12:21:54;;;;;;;41.78;15.93;;;;;;;;;;6258323;23;20174;-90
2023/01/08 12:25:24;;;;;;;39.03;15.17;;;;;;;;;;6242561;22;20274;-89
2023/01/08 12:28:47;;;;;;;39.63;15.60;;;;;;;;;;6259045;22;20156;-89
2023/01/08 12:32:08;;;;;;;38.93;15.73;;;;;;;;;;6258870;22;20167;-89
2023/01/08 12:35:22;;;;;;;43.87;17.40;;;;;;;;;;6255388;23;20236;-89
2023/01/08 12:38:38;;;;;;;42.20;16.50;;;;;;;;;;6267497;22;20186;-87
2023/01/08 14:56:17;;;;;;;49.67;20.33;;;;;;;;;;6197454;22;20194;-91
2023/01/08 14:59:31;;;;;;;37.43;15.47;;;;;;;;;;6245040;22;20238;-89
2023/01/08 15:06:12;;;;;;;30.20;13.33;;;;;;;;;;6247756;22;20166;-90
2023/01/08 15:09:36;;;;;;;33.50;14.00;;;;;;;;;;6251302;22;20162;-88
2023/01/08 16:06:34;;;;;;;28.13;13.00;;;;;;;;;;6249176;22;20210;-89
2023/01/08 16:09:46;;;;;;;33.13;13.23;;;;;;;;;;6240508;23;20183;-88
2023/01/08 16:12:58;;;;;;;26.57;11.60;;;;;;;;;;6260726;22;20167;-88
2023/01/08 16:16:10;;;;;;;30.47;13.80;;;;;;;;;;6243858;22;20642;-88
2023/01/08 16:19:22;;;;;;;28.07;12.70;;;;;;;;;;6260424;22;20270;-88
2023/01/08 16:22:35;;;;;;;28.73;13.63;;;;;;;;;;6244045;23;20674;-90
2023/01/08 16:25:47;;;;;;;26.17;11.30;;;;;;;;;;6260727;23;20186;-87
2023/01/08 16:28:59;;;;;;;32.50;13.17;;;;;;;;;;6245460;22;20163;-89
2023/01/08 16:32:11;;;;;;;27.30;12.87;;;;;;;;;;6258941;22;20167;-89
2023/01/08 16:35:24;;;;;;;26.10;12.67;;;;;;;;;;6258736;22;20170;-88
2023/01/08 16:38:37;;;;;;;28.97;12.40;;;;;;;;;;6242902;22;20163;-90
2023/01/08 16:41:49;;;;;;;31.30;14.00;;;;;;;;;;6243747;22;20660;-88
2023/01/08 16:45:01;;;;;;;27.97;12.53;;;;;;;;;;6257986;22;20170;-88
2023/01/08 16:48:13;;;;;;;31.93;14.43;;;;;;;;;;6258331;22;20216;-88
2023/01/08 16:51:26;;;;;;;29.03;14.40;;;;;;;;;;6257210;23;20166;-88
2023/01/08 16:54:39;;;;;;;32.73;14.60;;;;;;;;;;6258989;22;20167;-90
2023/01/08 16:57:50;;;;;;;36.57;15.77;;;;;;;;;;6259305;22;20162;-89
2023/01/08 17:01:08;;;;;;;48.03;19.87;;;;;;;;;;6259382;22;20190;-90
2023/01/08 17:04:19;;;;;;;42.00;19.50;;;;;;;;;;6262281;22;20219;-88
2023/01/08 17:17:47;;;;;;;28.48;13.60;;;;;;;;;;6158873;22;2630203;-88
2023/01/08 17:20:54;;;;;;;25.73;12.27;;;;;;;;;;6224109;22;20171;-88
2023/01/08 17:23:59;;;;;;;32.00;13.50;;;;;;;;;;6222494;23;20167;-87
2023/01/08 17:27:04;;;;;;;32.67;15.00;;;;;;;;;;6225431;23;20186;-90
2023/01/08 17:30:10;;;;;;;32.90;14.10;;;;;;;;;;6223710;22;20151;-88
2023/01/08 17:33:17;;;;;;;30.23;13.57;;;;;;;;;;6223871;22;20158;-88
2023/01/08 17:36:24;;;;;;;35.40;14.20;;;;;;;;;;6222805;22;20175;-90
2023/01/08 17:39:29;;;;;;;39.87;17.53;;;;;;;;;;6222140;23;20665;-89
2023/01/08 17:42:34;;;;;;;33.27;15.87;;;;;;;;;;6222067;23;20186;-89
2023/01/08 17:45:39;;;;;;;42.93;19.30;;;;;;;;;;6222884;23;20173;-90
2023/01/08 17:48:46;;;;;;;32.20;16.33;;;;;;;;;;6222390;22;20171;-88
2023/01/08 17:51:52;;;;;;;36.87;15.73;;;;;;;;;;6222281;22;20226;-91
2023/01/08 17:54:57;;;;;;;38.33;18.10;;;;;;;;;;6221939;23;20182;-91
2023/01/08 17:58:03;;;;;;;32.03;14.20;;;;;;;;;;6221471;23;20162;-91
2023/01/08 18:01:11;;;;;;;31.90;13.40;;;;;;;;;;6220800;22;20179;-90
2023/01/08 18:04:22;;;;;;;48.83;19.10;;;;;;;;;;6223391;22;20200;-89
2023/01/08 18:07:28;;;;;;;30.27;12.43;;;;;;;;;;6225031;22;20244;-87
2023/01/08 18:10:33;;;;;;;28.90;12.63;;;;;;;;;;6223585;23;20162;-90
2023/01/08 18:13:39;;;;;;;34.70;14.50;;;;;;;;;;6222885;23;20210;-87
2023/01/08 18:16:45;;;;;;;50.17;21.30;;;;;;;;;;6222795;23;20179;-89
2023/01/08 18:19:51;;;;;;;35.57;15.93;;;;;;;;;;6214821;23;20168;-90
2023/01/08 18:23:00;;;;;;;56.90;20.13;;;;;;;;;;6214489;23;20242;-91
2023/01/08 18:26:06;;;;;;;33.53;14.90;;;;;;;;;;6214408;23;20195;-88
2023/01/08 18:29:11;;;;;;;34.80;15.60;;;;;;;;;;6214325;23;20170;-88
2023/01/08 18:32:21;;;;;;;30.20;12.50;;;;;;;;;;6213252;23;20196;-89
2023/01/08 18:35:28;;;;;;;34.97;15.73;;;;;;;;;;6214028;23;20171;-89
2023/01/08 18:38:33;;;;;;;33.93;15.10;;;;;;;;;;6218852;22;20163;-90
2023/01/08 18:45:02;;;;;;;30.20;13.40;;;;;;;;;;6216333;23;20187;-89
2023/01/08 18:48:09;;;;;;;30.20;13.00;;;;;;;;;;6215256;23;20170;-89
2023/01/08 18:51:21;;;;;;;27.60;11.80;;;;;;;;;;6216098;23;20171;-88
2023/01/08 18:54:26;;;;;;;24.27;11.07;;;;;;;;;;6215136;23;20171;-89
2023/01/08 18:57:32;;;;;;;29.17;12.33;;;;;;;;;;6215939;23;20174;-87
2023/01/08 19:00:38;;;;;;;34.50;13.93;;;;;;;;;;6214298;23;20237;-87
2023/01/08 19:03:43;;;;;;;26.47;12.10;;;;;;;;;;6214023;23;20166;-88
2023/01/08 19:06:49;;;;;;;27.00;11.83;;;;;;;;;;6214089;22;20632;-89
2023/01/08 19:10:00;;;;;;;26.73;12.07;;;;;;;;;;6216785;23;20211;-88
2023/01/08 19:13:05;;;;;;;24.57;10.67;;;;;;;;;;6213911;23;20175;-88
2023/01/08 19:16:12;;;;;;;23.87;10.53;;;;;;;;;;6213317;22;20176;-89
2023/01/08 19:19:18;;;;;;;20.80;9.93;;;;;;;;;;6214020;23;20191;-90
2023/01/08 19:22:26;;;;;;;25.23;10.53;;;;;;;;;;6214175;23;20171;-86
2023/01/08 19:25:36;;;;;;;24.87;11.20;;;;;;;;;;6214272;23;20215;-88
2023/01/08 19:28:43;;;;;;;27.33;11.07;;;;;;;;;;6214696;23;20179;-90
2023/01/08 19:31:48;;;;;;;29.63;13.63;;;;;;;;;;6214392;23;20167;-92
2023/01/08 19:34:53;;;;;;;28.87;11.80;;;;;;;;;;6214318;23;20167;-92
2023/01/08 19:38:00;;;;;;;54.03;22.10;;;;;;;;;;6214173;23;20238;-88
2023/01/08 19:43:40;;;;;;;26.90;12.37;;;;;;;;;;6213934;22;20186;-92
2023/01/08 19:44:30;;;;;;;30.40;11.97;;;;;;;;;;6216109;23;20191;-92
2023/01/08 19:47:36;;;;;;;27.83;12.40;;;;;;;;;;6214062;23;20198;-90
2023/01/08 19:50:42;;;;;;;28.30;12.50;;;;;;;;;;6214008;23;20234;-89
2023/01/08 19:53:49;;;;;;;25.37;11.60;;;;;;;;;;6214751;22;20154;-89
2023/01/08 19:56:54;;;;;;;26.40;11.87;;;;;;;;;;6211812;23;20239;-87
2023/01/08 20:00:00;;;;;;;25.60;12.40;;;;;;;;;;6212479;23;20167;-88
2023/01/08 20:03:06;;;;;;;26.13;12.30;;;;;;;;;;6214561;23;20163;-90
2023/01/08 20:06:14;;;;;;;26.77;10.60;;;;;;;;;;6214752;23;20191;-89
2023/01/08 20:09:22;;;;;;;25.47;10.73;;;;;;;;;;6215516;22;20164;-89
2023/01/08 20:12:32;;;;;;;28.80;10.67;;;;;;;;;;6218797;23;20553;-88
2023/01/08 20:15:38;;;;;;;28.17;12.60;;;;;;;;;;6216219;23;20170;-88
2023/01/08 20:18:43;;;;;;;27.93;11.37;;;;;;;;;;6214100;23;20192;-88
2023/01/08 20:21:49;;;;;;;28.60;11.80;;;;;;;;;;6214256;22;20175;-90
2023/01/08 20:25:01;;;;;;;38.87;16.60;;;;;;;;;;6215084;23;20155;-91
2023/01/08 20:28:06;;;;;;;29.33;12.40;;;;;;;;;;6216278;22;20255;-88
2023/01/08 20:31:13;;;;;;;37.27;14.10;;;;;;;;;;6215772;23;20171;-88
2023/01/08 20:34:18;;;;;;;27.17;10.00;;;;;;;;;;6213313;23;20195;-89
2023/01/08 20:41:14;;;;;;;21.10;9.43;;;;;;;;;;6213991;22;20167;-88
2023/01/08 20:44:19;;;;;;;19.03;9.17;;;;;;;;;;6216126;23;20219;-89
2023/01/08 20:47:25;;;;;;;21.67;10.40;;;;;;;;;;6215258;23;20210;-86
2023/01/08 20:50:31;;;;;;;18.67;9.30;;;;;;;;;;6213065;23;20166;-89
2023/01/08 20:53:37;;;;;;;22.63;9.60;;;;;;;;;;6213083;23;20155;-92
2023/01/08 20:56:44;;;;;;;17.50;8.83;;;;;;;;;;6214023;22;20170;-87
2023/01/08 20:59:52;;;;;;;30.93;12.47;;;;;;;;;;6216128;23;20179;-89
2023/01/08 21:02:58;;;;;;;24.43;10.97;;;;;;;;;;6216001;23;20249;-87
2023/01/08 21:06:06;;;;;;;20.43;10.00;;;;;;;;;;6214610;23;20216;-90
2023/01/08 21:09:12;;;;;;;19.97;9.90;;;;;;;;;;6216211;22;20179;-88
2023/01/08 21:12:20;;;;;;;16.87;7.93;;;;;;;;;;6215594;22;20642;-88
2023/01/08 21:15:27;;;;;;;21.80;10.30;;;;;;;;;;6214998;23;20168;-87
2023/01/08 21:18:32;;;;;;;19.20;8.60;;;;;;;;;;6214205;23;20194;-89
2023/01/08 21:21:38;;;;;;;20.43;9.20;;;;;;;;;;6216175;22;20654;-89
2023/01/08 21:24:43;;;;;;;20.53;9.00;;;;;;;;;;6215569;22;20163;-89
2023/01/08 21:27:50;;;;;;;19.63;9.53;;;;;;;;;;6215298;22;20442;-89
2023/01/08 21:30:57;;;;;;;21.47;9.53;;;;;;;;;;6216203;23;20166;-89
2023/01/08 21:34:03;;;;;;;28.53;12.80;;;;;;;;;;6214270;23;20167;-87
2023/01/08 21:37:10;;;;;;;23.40;11.33;;;;;;;;;;6215121;23;20155;-90
2023/01/08 21:40:16;;;;;;;25.40;11.83;;;;;;;;;;6215370;22;20167;-89
2023/01/08 21:46:46;;;;;;;24.23;11.20;;;;;;;;;;6211967;23;20195;-90
2023/01/08 21:49:51;;;;;;;24.53;11.03;;;;;;;;;;6211498;23;20219;-90
2023/01/08 21:56:23;;;;;;;27.20;11.33;;;;;;;;;;6213045;22;20184;-87
2023/01/08 21:59:29;;;;;;;27.33;11.90;;;;;;;;;;6214141;23;20179;-88
2023/01/08 22:02:38;;;;;;;21.60;10.37;;;;;;;;;;6215697;23;20167;-88
2023/01/08 22:05:43;;;;;;;23.03;10.57;;;;;;;;;;6213649;23;20220;-89
2023/01/08 22:08:51;;;;;;;24.03;11.07;;;;;;;;;;6213638;23;20286;-87
2023/01/08 22:11:56;;;;;;;28.47;11.93;;;;;;;;;;6213896;23;20218;-90
2023/01/08 22:15:03;;;;;;;28.53;12.93;;;;;;;;;;6212172;23;20167;-90
2023/01/08 22:18:09;;;;;;;28.40;12.30;;;;;;;;;;6213009;23;20195;-89
2023/01/08 22:21:14;;;;;;;30.73;13.47;;;;;;;;;;6212382;23;20163;-87